Aviation Digital Data Service (ADDS)

Output produced by TAFs form (2354 UTC 19 October 2017)
found at http://aviationweather.gov/adds/tafs/
 
KSVH 192345Z AUTO 00000KT 10SM CLR 13/10 A3023 RMK AO2 T01340096